Time;durP1;ratioP1;P1;durP2;ratioP2;P2;SDS_P1;SDS_P2;PMS_P1;PMS_P2;Temp;Humidity;BMP_temperature;BMP_pressure;BME280_temperature;BME280_humidity;BME280_pressure;Samples;Min_cycle;Max_cycle;Signal;HPM_P1;HPM_P2
2024/03/27 00:01:41;;;;;;;1.40;1.30;;;11.10;86.20;;;;;;5027635;28;113898;-57
2024/03/27 00:04:09;;;;;;;1.35;1.25;;;11.00;85.90;;;;;;5015260;28;112807;-57
2024/03/27 00:06:35;;;;;;;1.70;1.60;;;11.10;85.80;;;;;;5029395;28;112718;-57
2024/03/27 00:09:01;;;;;;;1.65;1.55;;;11.10;85.80;;;;;;5027961;27;114440;-57
2024/03/27 00:11:27;;;;;;;1.55;1.48;;;11.10;86.00;;;;;;5027824;28;113842;-56
2024/03/27 00:13:54;;;;;;;2.47;1.60;;;11.10;86.20;;;;;;5028131;27;112470;-55
2024/03/27 00:16:19;;;;;;;2.03;1.70;;;11.10;86.20;;;;;;5029278;27;112841;-57
2024/03/27 00:18:45;;;;;;;1.58;1.48;;;11.10;86.20;;;;;;5028001;28;113158;-57
2024/03/27 00:21:11;;;;;;;5.47;4.20;;;11.10;85.90;;;;;;5026543;28;112860;-57
2024/03/27 00:23:37;;;;;;;3.63;2.70;;;11.00;86.10;;;;;;5029050;28;112895;-57
2024/03/27 00:26:04;;;;;;;1.80;1.70;;;11.00;86.20;;;;;;5028707;27;113175;-57
2024/03/27 00:28:30;;;;;;;1.70;1.60;;;11.10;86.40;;;;;;5026911;28;113339;-57
2024/03/27 00:30:56;;;;;;;2.00;1.65;;;10.90;86.80;;;;;;5027874;28;113152;-57
2024/03/27 00:33:23;;;;;;;3.13;1.50;;;11.00;86.60;;;;;;5028923;28;112826;-57
2024/03/27 00:35:56;;;;;;;1.70;1.60;;;11.00;86.70;;;;;;5028773;28;112654;-57
2024/03/27 00:38:23;;;;;;;2.05;1.92;;;11.10;86.50;;;;;;5013879;28;113151;-58
2024/03/27 00:40:49;;;;;;;1.50;1.40;;;11.10;86.40;;;;;;5027535;27;114030;-59
2024/03/27 00:43:15;;;;;;;2.10;1.40;;;11.10;86.20;;;;;;5028213;28;112772;-57
2024/03/27 00:45:42;;;;;;;2.03;1.20;;;11.10;86.10;;;;;;5027095;28;112778;-57
2024/03/27 00:48:08;;;;;;;1.60;1.50;;;11.20;86.10;;;;;;5027578;27;113391;-58
2024/03/27 00:50:34;;;;;;;1.67;1.58;;;11.20;86.00;;;;;;5027621;28;112727;-57
2024/03/27 00:53:01;;;;;;;1.92;1.77;;;11.20;86.10;;;;;;5028452;28;112498;-58
2024/03/27 00:55:26;;;;;;;3.13;1.60;;;11.20;86.10;;;;;;5028107;28;112711;-57
2024/03/27 00:57:52;;;;;;;2.25;1.65;;;11.10;86.20;;;;;;5027399;27;114410;-58
2024/03/27 01:00:18;;;;;;;1.83;1.73;;;11.30;86.20;;;;;;5027183;28;113038;-57
2024/03/27 01:02:45;;;;;;;2.92;2.00;;;11.30;86.10;;;;;;5020896;28;112788;-57
2024/03/27 01:05:12;;;;;;;2.30;2.13;;;11.30;86.00;;;;;;5021306;28;113071;-58
2024/03/27 01:07:38;;;;;;;2.63;2.38;;;11.30;85.90;;;;;;5027142;27;113152;-58
2024/03/27 01:10:05;;;;;;;2.25;2.15;;;11.30;86.00;;;;;;5027329;27;113123;-57
2024/03/27 01:12:31;;;;;;;2.00;1.90;;;11.30;86.00;;;;;;5027947;28;112693;-57
2024/03/27 01:14:57;;;;;;;2.10;1.90;;;11.30;86.10;;;;;;5028323;27;112752;-57
2024/03/27 01:17:23;;;;;;;1.73;1.63;;;11.30;86.20;;;;;;5027159;28;113107;-56
2024/03/27 01:19:49;;;;;;;1.67;1.58;;;11.30;86.10;;;;;;5023292;27;113903;-57
2024/03/27 01:22:15;;;;;;;1.88;1.77;;;11.30;86.10;;;;;;5027448;28;112632;-58
2024/03/27 01:24:41;;;;;;;2.05;1.80;;;11.30;86.20;;;;;;5027605;27;113153;-57
2024/03/27 01:27:07;;;;;;;2.45;2.00;;;11.30;86.10;;;;;;5026203;28;113100;-58
2024/03/27 01:29:32;;;;;;;2.55;2.35;;;11.30;86.20;;;;;;5026772;28;112637;-57
2024/03/27 01:31:58;;;;;;;2.00;1.90;;;11.40;86.10;;;;;;5028038;28;112444;-57
2024/03/27 01:34:24;;;;;;;3.17;1.60;;;11.40;86.20;;;;;;5027651;28;112697;-57
2024/03/27 01:36:50;;;;;;;1.52;1.42;;;11.30;86.20;;;;;;5026576;28;113416;-57
2024/03/27 01:39:16;;;;;;;1.88;1.77;;;11.30;86.20;;;;;;5026846;28;113491;-57
2024/03/27 01:41:41;;;;;;;1.77;1.67;;;11.40;85.90;;;;;;5027340;27;112913;-58
2024/03/27 01:44:18;;;;;;;1.70;1.60;;;11.40;86.00;;;;;;5027970;28;112884;-57
2024/03/27 01:46:46;;;;;;;1.90;1.80;;;11.40;85.90;;;;;;5026509;28;113346;-58
2024/03/27 01:49:14;;;;;;;1.90;1.80;;;11.40;86.00;;;;;;5023544;27;113015;-59
2024/03/27 01:51:40;;;;;;;2.05;1.95;;;11.50;85.70;;;;;;5024458;28;112624;-57
2024/03/27 01:54:06;;;;;;;2.00;1.90;;;11.40;85.80;;;;;;5016761;28;112665;-57
2024/03/27 01:56:33;;;;;;;2.45;2.28;;;11.40;85.80;;;;;;5018451;27;114370;-58
2024/03/27 01:59:03;;;;;;;2.90;2.70;;;11.40;85.90;;;;;;5020183;28;113848;-58
2024/03/27 02:01:30;;;;;;;2.85;2.65;;;11.30;86.10;;;;;;5013892;28;114251;-57
2024/03/27 02:03:56;;;;;;;2.97;2.83;;;11.30;86.40;;;;;;5026327;28;112657;-57
2024/03/27 02:06:22;;;;;;;3.15;2.95;;;11.30;86.30;;;;;;5016032;28;113309;-58
2024/03/27 02:08:49;;;;;;;3.45;3.20;;;11.30;86.30;;;;;;5018831;28;114020;-57
2024/03/27 02:11:16;;;;;;;3.45;3.13;;;11.40;86.10;;;;;;5022684;28;112666;-57
2024/03/27 02:13:46;;;;;;;3.88;3.58;;;11.40;86.10;;;;;;5027386;27;112665;-56
2024/03/27 02:16:12;;;;;;;3.80;3.60;;;11.40;85.90;;;;;;5023210;28;113217;-57
2024/03/27 02:18:38;;;;;;;3.90;3.70;;;11.40;85.90;;;;;;5025787;27;112679;-57
2024/03/27 02:21:08;;;;;;;4.13;3.83;;;11.40;86.10;;;;;;5025851;28;112535;-57
2024/03/27 02:24:06;;;;;;;4.13;3.70;;;11.40;85.80;;;;;;5011707;28;112824;-57
2024/03/27 02:26:35;;;;;;;3.65;3.45;;;11.40;85.90;;;;;;5025114;28;113430;-57
2024/03/27 02:29:01;;;;;;;3.50;3.30;;;11.40;85.80;;;;;;5015896;27;114086;-57
2024/03/27 02:31:28;;;;;;;5.47;3.67;;;11.40;85.90;;;;;;5026091;28;112739;-58
2024/03/27 02:33:53;;;;;;;3.25;2.97;;;11.40;86.10;;;;;;5026130;28;112691;-57
2024/03/27 02:36:19;;;;;;;3.70;3.50;;;11.30;86.30;;;;;;5024553;27;113251;-58
2024/03/27 02:38:45;;;;;;;3.30;3.10;;;11.30;86.20;;;;;;5022970;28;113367;-58
2024/03/27 02:41:10;;;;;;;7.05;5.45;;;11.40;86.30;;;;;;5024958;28;112958;-57
2024/03/27 02:43:36;;;;;;;4.40;4.00;;;11.40;86.10;;;;;;5025134;27;112705;-57
2024/03/27 02:46:02;;;;;;;3.25;3.05;;;11.40;86.30;;;;;;5024108;28;114302;-57
2024/03/27 02:48:27;;;;;;;3.42;3.13;;;11.40;86.30;;;;;;5025343;28;112683;-58
2024/03/27 02:50:53;;;;;;;3.30;3.10;;;11.40;86.20;;;;;;5026858;28;112693;-57
2024/03/27 02:53:19;;;;;;;2.90;2.70;;;11.40;86.10;;;;;;5041915;27;113375;-58
2024/03/27 02:55:45;;;;;;;2.80;2.60;;;11.50;86.30;;;;;;5022213;27;113283;-59
2024/03/27 02:58:11;;;;;;;2.53;2.25;;;11.50;86.10;;;;;;5014775;28;114529;-59
2024/03/27 03:00:36;;;;;;;2.53;2.25;;;11.40;86.20;;;;;;5026411;28;113237;-57
2024/03/27 03:03:02;;;;;;;2.20;2.10;;;11.40;86.20;;;;;;5042093;27;112811;-59
2024/03/27 03:05:29;;;;;;;2.47;2.38;;;11.50;86.20;;;;;;5041003;27;114806;-58
2024/03/27 03:07:55;;;;;;;2.42;2.20;;;11.50;86.10;;;;;;5025499;27;113066;-58
2024/03/27 03:10:20;;;;;;;2.45;2.30;;;11.50;86.00;;;;;;5026463;28;112640;-58
2024/03/27 03:12:46;;;;;;;2.65;2.50;;;11.40;86.20;;;;;;5026238;28;113069;-57
2024/03/27 03:15:12;;;;;;;2.20;2.10;;;11.50;86.20;;;;;;5041036;27;114530;-57
2024/03/27 03:17:37;;;;;;;2.40;2.30;;;11.40;86.30;;;;;;5025503;28;112623;-58
2024/03/27 03:20:07;;;;;;;2.13;2.03;;;11.50;86.50;;;;;;5026425;28;112644;-57
2024/03/27 03:22:33;;;;;;;2.50;2.30;;;11.40;86.40;;;;;;5025531;28;112640;-57
2024/03/27 03:24:58;;;;;;;2.38;2.28;;;11.50;86.30;;;;;;5025283;28;114493;-57
2024/03/27 03:27:25;;;;;;;2.20;2.10;;;11.50;86.30;;;;;;5019613;28;113221;-58
2024/03/27 03:29:50;;;;;;;2.40;2.00;;;11.50;86.20;;;;;;5021348;27;112861;-57
2024/03/27 03:32:17;;;;;;;1.73;1.63;;;11.50;86.30;;;;;;5016499;28;112770;-57
2024/03/27 03:34:43;;;;;;;2.33;2.13;;;11.50;86.30;;;;;;5025132;28;113191;-58
2024/03/27 03:37:08;;;;;;;2.15;1.95;;;11.40;86.30;;;;;;5025038;28;113592;-57
2024/03/27 03:39:34;;;;;;;2.00;1.90;;;11.40;86.40;;;;;;5025970;28;112872;-57
2024/03/27 03:42:00;;;;;;;2.33;2.20;;;11.40;86.50;;;;;;5025932;28;112973;-58
2024/03/27 03:44:25;;;;;;;2.75;2.28;;;11.40;86.60;;;;;;5025210;28;113182;-57
2024/03/27 03:46:51;;;;;;;2.30;2.10;;;11.40;86.60;;;;;;5024626;27;114057;-57
2024/03/27 03:49:17;;;;;;;1.73;1.63;;;11.40;86.70;;;;;;5027209;28;114614;-57
2024/03/27 03:51:43;;;;;;;2.22;2.03;;;11.40;86.60;;;;;;5029316;28;112939;-57
2024/03/27 03:54:09;;;;;;;2.17;1.83;;;11.40;86.50;;;;;;5016887;28;115092;-59
2024/03/27 03:56:34;;;;;;;2.90;1.95;;;11.40;86.50;;;;;;5019933;27;112773;-58
2024/03/27 03:59:00;;;;;;;3.83;2.35;;;11.40;86.60;;;;;;5029082;27;112643;-58
2024/03/27 04:01:29;;;;;;;2.28;2.08;;;11.40;86.70;;;;;;5029746;28;112826;-58
2024/03/27 04:03:55;;;;;;;2.28;2.17;;;11.30;86.70;;;;;;5028030;28;113256;-57
2024/03/27 04:06:21;;;;;;;3.58;2.70;;;11.40;86.70;;;;;;5028136;28;113945;-57
2024/03/27 04:08:46;;;;;;;3.00;2.40;;;11.40;86.50;;;;;;5029015;27;112801;-57
2024/03/27 04:11:12;;;;;;;2.80;2.60;;;11.30;86.50;;;;;;5029068;27;113150;-58
2024/03/27 04:13:38;;;;;;;3.40;2.80;;;11.40;86.50;;;;;;5028099;28;114970;-57
2024/03/27 04:16:04;;;;;;;2.92;2.72;;;11.40;86.60;;;;;;5043208;27;115966;-57
2024/03/27 04:18:30;;;;;;;2.83;2.63;;;11.40;86.50;;;;;;5029069;27;112565;-57
2024/03/27 04:20:55;;;;;;;3.30;3.00;;;11.40;86.40;;;;;;5028954;27;112799;-57
2024/03/27 04:23:21;;;;;;;3.47;3.17;;;11.40;86.50;;;;;;5028011;28;113618;-58
2024/03/27 04:25:51;;;;;;;3.80;3.50;;;11.40;86.50;;;;;;5027566;28;112663;-57
2024/03/27 04:28:16;;;;;;;5.03;3.58;;;11.40;86.50;;;;;;5028749;27;112662;-57
2024/03/27 04:30:43;;;;;;;4.32;3.67;;;11.40;86.50;;;;;;5029222;28;112674;-57
2024/03/27 04:33:10;;;;;;;6.47;3.95;;;11.40;86.40;;;;;;5027614;28;113154;-58
2024/03/27 04:35:37;;;;;;;4.25;3.78;;;11.40;86.50;;;;;;5027748;28;113052;-59
2024/03/27 04:38:02;;;;;;;5.35;4.38;;;11.40;86.60;;;;;;5028377;27;112520;-58
2024/03/27 04:40:28;;;;;;;5.45;4.22;;;11.50;86.20;;;;;;5028573;27;113222;-57
2024/03/27 04:42:54;;;;;;;5.45;4.80;;;11.40;86.10;;;;;;5027433;28;113237;-58
2024/03/27 04:45:21;;;;;;;5.75;4.50;;;11.40;86.10;;;;;;5027316;27;113799;-57
2024/03/27 04:47:47;;;;;;;5.10;4.60;;;11.40;86.10;;;;;;5028520;28;112706;-57
2024/03/27 04:50:13;;;;;;;5.47;4.97;;;11.40;86.30;;;;;;5028743;28;112662;-57
2024/03/27 04:52:38;;;;;;;5.13;4.72;;;11.40;86.30;;;;;;5026893;27;114579;-58
2024/03/27 04:55:05;;;;;;;6.20;5.70;;;11.40;86.40;;;;;;5027434;28;112866;-58
2024/03/27 04:57:31;;;;;;;5.90;5.32;;;11.40;86.50;;;;;;5014180;27;112644;-57
2024/03/27 04:59:58;;;;;;;6.30;5.60;;;11.40;86.30;;;;;;5028469;27;112834;-57
2024/03/27 05:02:24;;;;;;;6.43;5.93;;;11.40;86.30;;;;;;5027015;28;114493;-57
2024/03/27 05:04:50;;;;;;;6.97;6.32;;;11.40;86.30;;;;;;5027139;27;112651;-57
2024/03/27 05:07:16;;;;;;;6.68;6.00;;;11.40;86.40;;;;;;5027594;27;112695;-58
2024/03/27 05:09:42;;;;;;;7.97;7.22;;;11.40;86.50;;;;;;5028513;27;112808;-57
2024/03/27 05:12:07;;;;;;;8.02;7.22;;;11.40;86.40;;;;;;5027200;28;114382;-58
2024/03/27 05:14:33;;;;;;;10.60;7.75;;;11.40;86.50;;;;;;5027153;28;113053;-58
2024/03/27 05:16:59;;;;;;;8.48;7.70;;;11.40;86.40;;;;;;5028201;28;112586;-57
2024/03/27 05:19:25;;;;;;;8.95;8.25;;;11.40;86.30;;;;;;5043562;27;112825;-58
2024/03/27 05:21:52;;;;;;;10.45;9.52;;;11.40;86.40;;;;;;5026891;27;114456;-57
2024/03/27 05:24:18;;;;;;;10.18;9.27;;;11.30;86.60;;;;;;5027017;28;113084;-59
2024/03/27 05:26:46;;;;;;;9.52;8.52;;;11.30;86.80;;;;;;5027261;28;112858;-57
2024/03/27 05:29:12;;;;;;;10.30;9.50;;;11.30;86.80;;;;;;5028448;28;112525;-58
2024/03/27 05:31:52;;;;;;;11.10;10.10;;;11.40;86.60;;;;;;5026955;28;113780;-57
2024/03/27 05:34:18;;;;;;;9.93;9.13;;;11.40;86.70;;;;;;5025470;28;113390;-58
2024/03/27 05:36:44;;;;;;;10.43;9.45;;;11.40;86.60;;;;;;5027784;27;113021;-57
2024/03/27 05:39:10;;;;;;;13.13;9.85;;;11.50;86.40;;;;;;5027991;28;112748;-57
2024/03/27 05:41:37;;;;;;;11.45;10.45;;;11.50;86.40;;;;;;5026600;28;113592;-57
2024/03/27 05:44:03;;;;;;;10.80;9.75;;;11.60;86.20;;;;;;5025727;28;114458;-57
2024/03/27 05:46:29;;;;;;;11.55;10.40;;;11.60;86.10;;;;;;5027552;28;112484;-57
2024/03/27 05:48:55;;;;;;;11.88;10.55;;;11.50;86.30;;;;;;5026637;28;113034;-57
2024/03/27 05:51:24;;;;;;;11.93;10.93;;;11.40;86.40;;;;;;5025708;28;114987;-57
2024/03/27 05:53:50;;;;;;;10.95;10.00;;;11.50;86.50;;;;;;5025100;28;112831;-56
2024/03/27 05:56:16;;;;;;;12.10;10.95;;;11.60;86.30;;;;;;5018920;27;112557;-58
2024/03/27 05:58:41;;;;;;;12.18;11.18;;;11.50;86.30;;;;;;5020735;28;113468;-58
2024/03/27 06:01:07;;;;;;;11.82;10.80;;;11.60;86.20;;;;;;5025627;27;114450;-58
2024/03/27 06:03:33;;;;;;;11.77;10.77;;;11.60;86.20;;;;;;5025768;28;112754;-57
2024/03/27 06:06:00;;;;;;;11.68;10.77;;;11.60;86.00;;;;;;5026465;27;112905;-58
2024/03/27 06:08:26;;;;;;;12.75;11.75;;;11.60;86.10;;;;;;5026803;28;112709;-58
2024/03/27 06:10:51;;;;;;;11.98;10.98;;;11.50;86.20;;;;;;5023855;28;113269;-58
2024/03/27 06:13:18;;;;;;;11.60;10.57;;;11.40;86.30;;;;;;5025558;28;113766;-58
2024/03/27 06:15:44;;;;;;;10.85;9.95;;;11.40;86.60;;;;;;5026705;27;112870;-57
2024/03/27 06:18:11;;;;;;;11.30;10.30;;;11.50;86.60;;;;;;5013031;28;112736;-57
2024/03/27 06:20:37;;;;;;;12.27;11.00;;;11.50;86.30;;;;;;5025483;28;115182;-58
2024/03/27 06:23:03;;;;;;;10.88;9.93;;;11.60;86.30;;;;;;5025476;27;112660;-57
2024/03/27 06:25:29;;;;;;;12.48;11.20;;;11.60;86.30;;;;;;5025590;28;113484;-57
2024/03/27 06:27:55;;;;;;;12.52;11.43;;;11.70;86.20;;;;;;5025782;27;112834;-57
2024/03/27 06:30:21;;;;;;;12.05;11.05;;;11.70;86.00;;;;;;5025246;27;114629;-57
2024/03/27 06:32:48;;;;;;;11.43;10.43;;;11.70;86.20;;;;;;5025964;28;112939;-57
2024/03/27 06:35:13;;;;;;;12.45;11.45;;;11.50;86.40;;;;;;5026526;28;112865;-57
2024/03/27 06:37:39;;;;;;;13.27;12.00;;;11.60;86.40;;;;;;5026521;28;112758;-57
2024/03/27 06:40:09;;;;;;;10.90;9.80;;;11.60;86.40;;;;;;5024975;28;113165;-57
2024/03/27 06:42:35;;;;;;;12.15;11.15;;;11.70;86.40;;;;;;5025472;28;114110;-58
2024/03/27 06:45:05;;;;;;;11.90;10.90;;;11.70;86.30;;;;;;5025891;27;112923;-57
2024/03/27 06:47:32;;;;;;;12.43;11.27;;;11.80;86.20;;;;;;5026146;28;113210;-57
2024/03/27 06:49:58;;;;;;;13.10;11.90;;;11.80;86.00;;;;;;5024646;28;114624;-57
2024/03/27 06:52:24;;;;;;;13.63;12.43;;;11.90;86.10;;;;;;5023477;28;115478;-57
2024/03/27 06:54:50;;;;;;;13.75;12.55;;;11.90;86.00;;;;;;5026108;28;112741;-57
2024/03/27 06:57:16;;;;;;;13.93;12.80;;;11.90;85.90;;;;;;5011876;28;112750;-57
2024/03/27 06:59:42;;;;;;;14.40;13.13;;;11.90;86.10;;;;;;5025090;28;114709;-57
2024/03/27 07:02:07;;;;;;;13.25;12.05;;;11.80;86.30;;;;;;5024605;28;112818;-57
2024/03/27 07:04:33;;;;;;;13.95;12.27;;;11.70;86.50;;;;;;5025616;27;112990;-57
2024/03/27 07:06:59;;;;;;;13.00;11.80;;;11.60;86.80;;;;;;5025938;28;112695;-58
2024/03/27 07:09:25;;;;;;;12.50;10.82;;;11.70;86.70;;;;;;5024647;27;114530;-56
2024/03/27 07:11:51;;;;;;;12.43;11.18;;;11.60;86.90;;;;;;5023066;27;113802;-57
2024/03/27 07:14:18;;;;;;;11.98;10.73;;;11.60;86.90;;;;;;5025713;27;112862;-55
2024/03/27 07:16:43;;;;;;;12.15;11.02;;;11.70;87.00;;;;;;5026099;28;113423;-57
2024/03/27 07:19:10;;;;;;;14.90;13.25;;;11.80;86.70;;;;;;5024776;28;113216;-57
2024/03/27 07:21:36;;;;;;;17.95;15.27;;;11.80;86.60;;;;;;5025193;28;113286;-57
2024/03/27 07:24:04;;;;;;;14.00;12.13;;;11.90;86.60;;;;;;5028483;28;112948;-60
2024/03/27 07:26:31;;;;;;;12.38;11.20;;;11.90;86.50;;;;;;5028492;27;112693;-56
2024/03/27 07:28:57;;;;;;;11.60;10.02;;;11.80;86.50;;;;;;5017921;28;114854;-57
2024/03/27 07:31:23;;;;;;;10.80;9.80;;;11.80;86.70;;;;;;5027648;28;112912;-57
2024/03/27 07:33:48;;;;;;;10.75;9.25;;;11.90;86.70;;;;;;5029678;28;112442;-57
2024/03/27 07:36:14;;;;;;;9.88;8.98;;;11.90;86.50;;;;;;5029080;28;112725;-57
2024/03/27 07:38:40;;;;;;;9.23;8.43;;;11.90;86.60;;;;;;5020235;28;114939;-57
2024/03/27 07:41:06;;;;;;;9.52;8.63;;;12.00;86.40;;;;;;5022453;28;114207;-57
2024/03/27 07:43:32;;;;;;;8.80;7.93;;;12.00;86.40;;;;;;5029039;28;112882;-57
2024/03/27 07:46:06;;;;;;;8.40;7.50;;;12.00;86.60;;;;;;5029656;28;112664;-58
2024/03/27 07:48:33;;;;;;;7.63;6.93;;;12.10;86.40;;;;;;5028779;28;113127;-57
2024/03/27 07:50:59;;;;;;;8.43;7.63;;;12.10;86.30;;;;;;5020044;27;114828;-57
2024/03/27 07:53:25;;;;;;;9.13;8.23;;;12.10;86.40;;;;;;5018111;27;112830;-57
2024/03/27 07:55:58;;;;;;;11.20;10.10;;;12.30;86.30;;;;;;5021697;27;112815;-57
2024/03/27 07:58:24;;;;;;;10.32;9.23;;;12.20;86.20;;;;;;5018869;27;113254;-57
2024/03/27 08:00:50;;;;;;;8.00;7.20;;;12.30;86.30;;;;;;5027641;28;112770;-57
2024/03/27 08:03:16;;;;;;;6.72;6.13;;;12.20;86.30;;;;;;5028667;27;112901;-57
2024/03/27 08:05:44;;;;;;;6.82;6.22;;;12.10;86.60;;;;;;5026808;27;112847;-55
2024/03/27 08:08:10;;;;;;;6.65;6.05;;;12.10;86.80;;;;;;5027758;28;113485;-57
2024/03/27 08:10:36;;;;;;;5.50;5.10;;;12.10;86.60;;;;;;5024485;27;112952;-57
2024/03/27 08:13:02;;;;;;;5.60;5.10;;;12.00;86.70;;;;;;5018424;27;113120;-57
2024/03/27 08:15:28;;;;;;;5.93;5.35;;;12.00;86.90;;;;;;5026208;28;113069;-56
2024/03/27 08:17:54;;;;;;;5.78;5.28;;;12.00;87.10;;;;;;5026986;28;113378;-57
2024/03/27 08:20:20;;;;;;;5.57;5.18;;;12.00;86.90;;;;;;5027174;28;114236;-57
2024/03/27 08:22:46;;;;;;;5.22;4.75;;;11.90;87.10;;;;;;5028523;28;112728;-57
2024/03/27 08:25:12;;;;;;;5.53;5.05;;;11.90;87.30;;;;;;5028690;28;112829;-57
2024/03/27 08:27:38;;;;;;;5.95;5.22;;;11.90;87.20;;;;;;5028245;28;113289;-56
2024/03/27 08:30:04;;;;;;;5.57;5.07;;;11.90;87.20;;;;;;5014746;27;112587;-57
2024/03/27 08:32:31;;;;;;;5.47;5.00;;;11.90;87.50;;;;;;5026754;28;113888;-56
2024/03/27 08:34:56;;;;;;;6.00;5.50;;;12.00;87.30;;;;;;5028209;28;112774;-57
2024/03/27 08:37:23;;;;;;;5.28;4.68;;;12.00;87.10;;;;;;5018413;27;113241;-56
2024/03/27 08:39:48;;;;;;;5.35;4.85;;;12.10;87.20;;;;;;5018352;28;113959;-59
2024/03/27 08:42:14;;;;;;;5.00;4.50;;;12.10;87.00;;;;;;5028398;27;113280;-57
2024/03/27 08:44:41;;;;;;;5.10;4.70;;;12.30;86.80;;;;;;5028066;28;112972;-59
2024/03/27 08:47:06;;;;;;;4.88;4.47;;;12.30;86.60;;;;;;5025584;27;116331;-57
2024/03/27 08:49:32;;;;;;;6.20;5.32;;;12.20;86.80;;;;;;5027293;28;113058;-57
2024/03/27 08:51:58;;;;;;;6.45;5.30;;;12.20;86.80;;;;;;5028338;28;112743;-57
2024/03/27 08:54:23;;;;;;;6.90;5.90;;;12.30;86.90;;;;;;5028345;28;112693;-57
2024/03/27 08:56:49;;;;;;;7.57;5.03;;;12.20;87.00;;;;;;5015132;28;113378;-57
2024/03/27 08:59:15;;;;;;;5.47;5.03;;;12.40;87.00;;;;;;5025609;27;113192;-58
2024/03/27 09:01:40;;;;;;;6.72;5.45;;;12.40;86.70;;;;;;5028069;27;113160;-57
2024/03/27 09:04:06;;;;;;;7.28;5.60;;;12.40;86.70;;;;;;5027545;28;113073;-57
2024/03/27 09:06:32;;;;;;;7.15;6.45;;;12.40;86.90;;;;;;5019057;28;113540;-57
2024/03/27 09:08:57;;;;;;;6.20;5.60;;;12.40;86.80;;;;;;5022562;28;112810;-57
2024/03/27 09:11:23;;;;;;;5.63;5.00;;;12.40;86.90;;;;;;5028111;28;112684;-58
2024/03/27 09:13:49;;;;;;;5.50;5.00;;;12.40;86.90;;;;;;5027693;28;112885;-57
2024/03/27 09:16:14;;;;;;;6.22;5.65;;;12.40;87.00;;;;;;5026984;28;114405;-58
2024/03/27 09:18:40;;;;;;;5.72;5.20;;;12.40;87.10;;;;;;5027155;28;113051;-59
2024/03/27 09:21:06;;;;;;;7.13;5.47;;;12.30;87.10;;;;;;5026292;28;112691;-57
2024/03/27 09:23:32;;;;;;;6.13;4.90;;;12.30;87.20;;;;;;5028109;28;112650;-57
2024/03/27 09:26:00;;;;;;;6.05;5.10;;;12.30;87.20;;;;;;5027174;28;113305;-57
2024/03/27 09:28:26;;;;;;;6.10;5.50;;;12.30;87.30;;;;;;5023853;27;112875;-58
2024/03/27 09:30:52;;;;;;;6.00;5.50;;;12.40;87.20;;;;;;5027754;27;113032;-57
2024/03/27 09:33:18;;;;;;;6.35;5.20;;;12.50;87.00;;;;;;5027691;27;114174;-57
2024/03/27 09:35:46;;;;;;;5.90;5.07;;;12.60;86.90;;;;;;5027003;27;113363;-58
2024/03/27 09:38:12;;;;;;;5.68;5.10;;;12.70;86.80;;;;;;5026670;28;112674;-57
2024/03/27 09:40:45;;;;;;;7.07;5.10;;;12.80;86.60;;;;;;5027489;28;112987;-58
2024/03/27 09:43:12;;;;;;;8.10;5.22;;;12.80;86.40;;;;;;5025603;27;113773;-57
2024/03/27 09:45:39;;;;;;;6.95;6.20;;;12.90;86.40;;;;;;5024685;28;113248;-57
2024/03/27 09:48:09;;;;;;;7.05;5.70;;;13.00;86.30;;;;;;5026354;27;113794;-57
2024/03/27 09:50:36;;;;;;;6.30;5.22;;;13.10;86.20;;;;;;5027104;27;112871;-57
2024/03/27 09:53:04;;;;;;;6.28;5.55;;;13.10;85.90;;;;;;5027830;27;113077;-57
2024/03/27 09:55:34;;;;;;;8.13;5.60;;;13.20;85.70;;;;;;5024363;27;114317;-58
2024/03/27 09:58:04;;;;;;;5.85;5.25;;;13.20;85.90;;;;;;5014193;28;113968;-57
2024/03/27 10:00:32;;;;;;;5.68;5.18;;;13.10;85.90;;;;;;5025365;28;112695;-57
2024/03/27 10:02:59;;;;;;;6.65;4.75;;;13.10;86.10;;;;;;5027576;28;113096;-57
2024/03/27 10:05:26;;;;;;;7.35;5.70;;;13.20;86.00;;;;;;5026161;27;113160;-55
2024/03/27 10:07:53;;;;;;;7.47;4.40;;;13.30;85.80;;;;;;5026238;27;112872;-57
2024/03/27 10:10:21;;;;;;;8.68;5.03;;;13.20;85.80;;;;;;5027037;27;112610;-57
2024/03/27 10:12:47;;;;;;;8.32;5.05;;;13.30;85.90;;;;;;5027306;27;112755;-57
2024/03/27 10:15:13;;;;;;;6.45;5.15;;;13.30;85.90;;;;;;5026552;28;113299;-57
2024/03/27 10:17:39;;;;;;;7.43;4.88;;;13.30;86.00;;;;;;5025698;27;113752;-58
2024/03/27 10:20:06;;;;;;;7.70;5.57;;;13.20;86.20;;;;;;5026962;27;113070;-58
2024/03/27 10:22:35;;;;;;;6.68;5.13;;;13.30;86.40;;;;;;5027105;27;112660;-57
2024/03/27 10:25:04;;;;;;;9.07;5.60;;;13.40;85.90;;;;;;5025362;28;114707;-58
2024/03/27 10:27:30;;;;;;;9.65;5.70;;;13.40;86.00;;;;;;5025432;27;114531;-58
2024/03/27 10:29:56;;;;;;;8.15;6.32;;;13.40;86.00;;;;;;5026911;28;112666;-57
2024/03/27 10:32:22;;;;;;;9.13;6.13;;;13.40;86.10;;;;;;5026996;28;113170;-57
2024/03/27 10:34:49;;;;;;;10.07;7.03;;;13.40;86.30;;;;;;5024644;28;116807;-57
2024/03/27 10:37:16;;;;;;;8.00;6.60;;;13.40;86.40;;;;;;5024511;28;113957;-56
2024/03/27 10:39:51;;;;;;;9.93;6.68;;;13.40;86.20;;;;;;5024665;28;112602;-57
2024/03/27 10:42:27;;;;;;;9.60;6.72;;;13.40;86.40;;;;;;5027311;27;112644;-57
2024/03/27 10:45:00;;;;;;;9.32;6.25;;;13.30;86.90;;;;;;5025648;28;113322;-59
2024/03/27 10:47:34;;;;;;;10.55;6.80;;;13.30;87.10;;;;;;5025120;28;113242;-57
2024/03/27 10:50:03;;;;;;;11.95;6.53;;;13.30;87.20;;;;;;5026463;27;112818;-57
2024/03/27 10:52:31;;;;;;;13.35;6.18;;;13.30;87.30;;;;;;5026593;28;112702;-56
2024/03/27 10:54:57;;;;;;;10.63;6.10;;;13.30;87.40;;;;;;5025129;28;114355;-57
2024/03/27 10:57:23;;;;;;;12.98;6.30;;;13.30;87.60;;;;;;5027014;27;113668;-57
2024/03/27 10:59:50;;;;;;;14.02;6.97;;;13.40;87.60;;;;;;5029669;28;112957;-57
2024/03/27 11:02:18;;;;;;;12.77;6.55;;;13.50;87.50;;;;;;5030097;28;113003;-58
2024/03/27 11:04:57;;;;;;;14.50;6.82;;;13.50;87.40;;;;;;5029315;27;113154;-56
2024/03/27 11:07:23;;;;;;;17.13;6.50;;;13.60;87.60;;;;;;5029089;28;112674;-57
2024/03/27 11:09:51;;;;;;;18.75;7.22;;;13.60;87.70;;;;;;5029631;28;112516;-57
2024/03/27 11:12:21;;;;;;;20.00;5.60;;;13.80;87.80;;;;;;5030136;27;112827;-56
2024/03/27 11:14:48;;;;;;;20.33;5.13;;;13.80;88.20;;;;;;5023378;28;113350;-57
2024/03/27 11:17:15;;;;;;;28.23;6.82;;;13.80;88.40;;;;;;5028944;28;113132;-57
2024/03/27 11:19:42;;;;;;;14.57;4.88;;;13.90;88.50;;;;;;5029483;28;112657;-58
2024/03/27 11:22:15;;;;;;;22.90;4.63;;;13.80;88.50;;;;;;5029902;27;112780;-57
2024/03/27 11:24:41;;;;;;;19.48;4.85;;;13.90;88.50;;;;;;5028363;28;116401;-57
2024/03/27 11:27:07;;;;;;;17.63;5.15;;;13.90;88.30;;;;;;5028409;28;113957;-59
2024/03/27 11:29:34;;;;;;;19.13;4.50;;;14.00;88.60;;;;;;5030349;27;112683;-57
2024/03/27 11:32:01;;;;;;;21.25;4.25;;;14.10;88.50;;;;;;5029669;27;112673;-57
2024/03/27 11:34:28;;;;;;;16.92;4.63;;;14.10;88.00;;;;;;5028417;28;114564;-57
2024/03/27 11:36:55;;;;;;;22.40;5.88;;;14.20;88.00;;;;;;5028395;28;112701;-57
2024/03/27 11:39:21;;;;;;;19.83;5.32;;;14.20;87.80;;;;;;5028885;28;113240;-56
2024/03/27 11:41:47;;;;;;;16.58;4.88;;;14.20;88.10;;;;;;5018891;27;112897;-57
2024/03/27 11:44:17;;;;;;;22.10;4.95;;;14.20;88.00;;;;;;5025816;27;114590;-55
2024/03/27 11:46:43;;;;;;;15.60;4.47;;;14.10;88.00;;;;;;5028105;28;114137;-56
2024/03/27 11:49:10;;;;;;;19.25;4.72;;;14.10;88.30;;;;;;5027408;28;113095;-57
2024/03/27 11:51:36;;;;;;;16.58;4.97;;;14.00;88.30;;;;;;5029050;27;113117;-58
2024/03/27 11:54:02;;;;;;;20.00;5.35;;;14.00;88.70;;;;;;5028209;27;114560;-57
2024/03/27 11:56:31;;;;;;;23.65;5.75;;;14.00;88.80;;;;;;5021756;27;112824;-57
2024/03/27 11:58:58;;;;;;;20.23;5.47;;;14.00;88.90;;;;;;5029092;28;112812;-58
2024/03/27 12:01:24;;;;;;;18.05;5.82;;;13.90;89.10;;;;;;5029306;27;112759;-55
2024/03/27 12:03:52;;;;;;;22.95;5.88;;;13.90;89.10;;;;;;5027804;27;115670;-55
2024/03/27 12:06:21;;;;;;;33.53;6.13;;;13.90;89.30;;;;;;5029648;27;114802;-58
2024/03/27 12:08:48;;;;;;;27.27;8.32;;;13.90;89.30;;;;;;5027517;27;113344;-58
2024/03/27 12:11:16;;;;;;;21.35;9.20;;;13.90;89.30;;;;;;5028964;28;112775;-57
2024/03/27 12:13:42;;;;;;;22.40;7.68;;;13.90;89.40;;;;;;5027740;27;113555;-56
2024/03/27 12:16:09;;;;;;;22.63;7.28;;;13.90;89.40;;;;;;5027916;27;112774;-57
2024/03/27 12:18:38;;;;;;;18.05;5.75;;;13.90;89.50;;;;;;5028712;27;113134;-56
2024/03/27 12:21:08;;;;;;;19.70;5.80;;;13.90;89.50;;;;;;5028936;28;112978;-57
2024/03/27 12:23:36;;;;;;;18.00;5.57;;;13.90;89.60;;;;;;5026642;27;113198;-58
2024/03/27 12:26:03;;;;;;;21.70;6.38;;;13.90;89.60;;;;;;5021409;27;113781;-58
2024/03/27 12:28:29;;;;;;;26.85;6.80;;;13.90;89.70;;;;;;5028572;27;112591;-56
2024/03/27 12:30:58;;;;;;;16.05;5.40;;;13.90;89.80;;;;;;5023488;28;113521;-56